Bluefin — A8WR8 — position and weather

sailwx.info

Track history (hours):
 
Tides and Currents Weather Stations Pressure Air Temp Water Temp Dewpoint Dewpoint Depression Visibility Wind Speed Wind Dir Waves Ship Positions

Bluefin

Last reported at 2017-Nov-23 14:15 UTC. Time now 2017-Nov-25 00:15 UTC.
Position N 05°01' W 000°11'.

Length 145 m; draft 9.2 m.

Type: Ship. MMSI: 636014814.

Date/timePositionNaut miles runAvg speedWind from/ knotsBaromVisibWave heightAir tempDewpointWater temp
2017-Nov-23 14:15N 05°01' W 000°11'5 9.5
2017-Nov-23 13:43N 05°03' W 000°06'2 9.5
2017-Nov-23 13:30N 05°04' W 000°04'5 9.3
2017-Nov-23 13:00N 05°06' W 000°00'5 9.4
2017-Nov-23 12:30N 05°09' E 000°04'5 9.6
2017-Nov-23 12:00N 05°11' E 000°08'5 9.7
2017-Nov-23 11:30N 05°13' E 000°12'5 9.8
2017-Nov-23 11:00N 05°16' E 000°16'510.1
2017-Nov-23 10:31N 05°19' E 000°21'5 9.8
2017-Nov-23 10:00N 05°20' E 000°25'  
Track history (hours):
 
Tides and Currents Weather Stations Pressure Air Temp Water Temp Dewpoint Dewpoint Depression Visibility Wind Speed Wind Dir Waves Ship Positions

Bluefin

Last reported at 2017-Nov-23 14:15 UTC. Time now 2017-Nov-25 00:15 UTC.
Position N 05°01' W 000°11'.

Length 145 m; draft 9.2 m.

Type: Ship. MMSI: 636014814.

Date/timePositionNaut miles runAvg speedWind from/ knotsBaromVisibWave heightAir tempDewpointWater temp
2017-Nov-23 14:15N 05°01' W 000°11'5 9.5
2017-Nov-23 13:43N 05°03' W 000°06'2 9.5
2017-Nov-23 13:30N 05°04' W 000°04'5 9.3
2017-Nov-23 13:00N 05°06' W 000°00'5 9.4
2017-Nov-23 12:30N 05°09' E 000°04'5 9.6
2017-Nov-23 12:00N 05°11' E 000°08'5 9.7
2017-Nov-23 11:30N 05°13' E 000°12'5 9.8
2017-Nov-23 11:00N 05°16' E 000°16'510.1
2017-Nov-23 10:31N 05°19' E 000°21'5 9.8
2017-Nov-23 10:00N 05°20' E 000°25'  

Dump ship's entire track history